Terminal Aerodrome Forecast
Issued by NWS

Home | Current Version | Previous Version | Text Only | Print | Product List | Glossary Off
Versions: 1 2 3 4 5 6 7 8 9 10 11 12 13 14

000
FTUS41 KCLE 181133
TAFFDY
TAF
KFDY 181133Z 1812/1912 23015G25KT P6SM SKC
     FM190000 22014KT P6SM FEW250 WS020/25045KT=

USA.gov is the U.S. government's official web portal to all federal, state and local government web resources and services.